Starke, FL

1:59 PM EST on December 26, 2014 (GMT -0500)
Gainesville Regional | Change Station
CLOSE
Current Station
Airport
Location: Gainesville,
Elevation: 151 ft
Nearby Weather Stations

Elev 151 ft 29.69 °N, 82.28 °W | Updated 6 minutes ago

Partly Cloudy
Partly Cloudy
69 °F
Feels Like 69 °F
N
4
Wind Variable Wind from NE

Today
High -- | Low -- °F
--% Chance of Precip.
Yesterday
High -- | Low -- °F
Precip. -- in
7:22 AM 5:35 PM
Waxing Crescent, 28% visible
Pressure 30.22 in
Visibility 10.0 miles
Clouds Few 3400 ft
Dew Point 53 °F
Humidity 57%
Rainfall 0.00 in
Snow Depth Not available.
UV 4 out of 12
Pollen 2.70 out of 12
Air Quality Not available.
Flu Activity Not available.
METAR KGNV 261853Z 04003KT 10SM FEW034 21/12 A3022 RMK AO2 SLP232 T02060117

More Conditions Fewer Conditions

Pressure 30.22 in
Visibility 10.0 miles
Clouds Few 3400 ft
Dew Point 53 °F
Humidity 57%
Rainfall 0.00 in
Snow Depth Not available.
UV 4 out of 12
Pollen 2.70 out of 12
Air Quality Not available.
Flu Activity Not available.
METAR KGNV 261853Z 04003KT 10SM FEW034 21/12 A3022 RMK AO2 SLP232 T02060117

More Conditions Fewer Conditions

10-Day Weather Forecast

Almanac

Astronomy

Dec. 26, 2014 Rise Set
Actual Time
Civil Twilight
Nautical Twilight
Astronomical Twilight
Moon
Length of Visible Light
Length of Day
Tomorrow will be .
, % of the Moon is Illuminated

Today's Extremes

State Highs State Lows

Community

WunderPhotos

Upload Photos

1,780,668 photos uploaded!

WunderBlogs® & News

Nearby

Air Quality

  Air Quality AQ Index Pollutant
Not available.

Snow Depth

Station Depth Elevation

Earthquake Activity

City Distance Mag. Time & Date
Minimum magnitude displayed is 2.5.

Coastal Water Temperatures

Place Temperature

Nearby Weather Stations